createdAt,value
2022-09-15T00:00:10.228Z,0.50
2022-09-15T00:03:11.690Z,0.73
2022-09-15T00:06:13.501Z,0.40
2022-09-15T00:09:14.879Z,0.50
2022-09-15T00:12:17.033Z,0.47
2022-09-15T00:15:18.535Z,0.40
2022-09-15T00:18:20.149Z,0.70
2022-09-15T00:21:24.506Z,0.70
2022-09-15T00:24:26.017Z,0.60
2022-09-15T00:27:27.453Z,0.60
2022-09-15T00:30:28.908Z,0.60
2022-09-15T00:33:30.333Z,0.60
2022-09-15T00:36:32.089Z,0.50
2022-09-15T00:39:33.490Z,0.50
2022-09-15T00:42:34.869Z,0.40
2022-09-15T00:45:37.063Z,0.73
2022-09-15T00:48:43.641Z,0.40
2022-09-15T00:51:49.006Z,0.68
2022-09-15T00:54:52.651Z,0.63
2022-09-15T00:58:11.197Z,0.77
2022-09-15T01:01:14.413Z,0.70
2022-09-15T01:04:16.472Z,0.68
2022-09-15T01:07:23.869Z,0.50
2022-09-15T01:10:30.813Z,0.57
2022-09-15T01:13:32.242Z,0.52
2022-09-15T01:16:58.927Z,0.40
2022-09-15T01:20:16.295Z,0.88
2022-09-15T01:23:36.612Z,0.43
2022-09-15T01:26:51.449Z,0.50
2022-09-15T01:30:06.358Z,1.08
2022-09-15T01:33:10.832Z,0.77
2022-09-15T01:36:23.161Z,0.70
2022-09-15T01:39:34.236Z,0.60
2022-09-15T01:42:37.312Z,0.77
2022-09-15T01:45:42.978Z,0.63
2022-09-15T01:48:47.168Z,0.57
2022-09-15T01:51:51.298Z,0.73
2022-09-15T01:55:11.643Z,0.65
2022-09-15T01:58:13.065Z,0.70
2022-09-15T02:01:21.877Z,0.80
2022-09-15T02:04:30.738Z,0.60
2022-09-15T02:07:58.501Z,0.60
2022-09-15T02:11:19.625Z,0.60
2022-09-15T02:14:36.200Z,0.70
2022-09-15T02:17:43.039Z,0.40
2022-09-15T02:20:52.227Z,0.60
2022-09-15T02:23:57.832Z,0.50
2022-09-15T02:27:01.669Z,0.52
2022-09-15T02:30:13.015Z,0.50
2022-09-15T02:33:20.309Z,0.55
2022-09-15T02:36:22.578Z,0.63
2022-09-15T02:39:30.795Z,0.52
2022-09-15T02:42:33.285Z,0.47
2022-09-15T02:45:34.786Z,0.80
2022-09-15T02:48:36.189Z,0.40
2022-09-15T02:51:37.990Z,0.60
2022-09-15T02:54:39.387Z,0.60
2022-09-15T02:57:40.777Z,0.80
2022-09-15T03:00:42.476Z,0.50
2022-09-15T03:03:45.274Z,0.75
2022-09-15T03:06:46.706Z,0.68
2022-09-15T03:09:48.187Z,0.40
2022-09-15T03:12:51.796Z,0.47
2022-09-15T03:15:53.232Z,0.45
2022-09-15T03:18:56.090Z,0.50
2022-09-15T03:21:57.496Z,0.45
2022-09-15T03:24:58.930Z,0.55
2022-09-15T03:28:00.322Z,0.45
2022-09-15T03:31:02.520Z,0.47
2022-09-15T03:34:04.032Z,0.47
2022-09-15T03:37:05.520Z,0.50
2022-09-15T03:40:07.477Z,0.55
2022-09-15T03:43:10.179Z,0.80
2022-09-15T03:46:14.525Z,0.40
2022-09-15T03:49:15.998Z,0.40
2022-09-15T03:52:17.433Z,0.50
2022-09-15T03:55:19.034Z,0.30
2022-09-15T03:58:20.467Z,0.50
2022-09-15T04:01:22.949Z,0.57
2022-09-15T04:04:24.459Z,0.65
2022-09-15T04:07:26.262Z,0.40
2022-09-15T04:10:27.850Z,0.65
2022-09-15T04:13:29.264Z,0.40
2022-09-15T04:16:30.865Z,0.35
2022-09-15T04:19:32.313Z,0.60
2022-09-15T04:22:34.222Z,0.50
2022-09-15T04:25:35.611Z,0.50
2022-09-15T04:28:39.261Z,0.50
2022-09-15T04:31:40.730Z,0.50
2022-09-15T04:34:42.229Z,0.57
2022-09-15T04:37:43.632Z,0.50
2022-09-15T04:40:45.460Z,0.50
2022-09-15T04:43:47.041Z,0.60
2022-09-15T04:46:48.853Z,0.40
2022-09-15T04:49:50.538Z,0.60
2022-09-15T04:52:52.585Z,0.60
2022-09-15T04:55:53.987Z,0.40
2022-09-15T04:59:02.717Z,0.60
2022-09-15T05:02:05.206Z,0.40
2022-09-15T05:05:06.851Z,0.30
2022-09-15T05:08:08.442Z,0.50
2022-09-15T05:11:12.414Z,0.40
2022-09-15T05:14:13.832Z,0.50
2022-09-15T05:17:15.211Z,0.43
2022-09-15T05:20:17.555Z,0.45
2022-09-15T05:23:18.931Z,0.65
2022-09-15T05:26:26.288Z,0.40
2022-09-15T05:29:27.662Z,0.40
2022-09-15T05:32:29.034Z,0.40
2022-09-15T05:35:30.454Z,0.40
2022-09-15T05:38:32.657Z,0.30
2022-09-15T05:41:34.127Z,0.60
2022-09-15T05:44:35.563Z,0.70
2022-09-15T05:47:36.965Z,1.85
2022-09-15T05:50:39.298Z,0.30
2022-09-15T05:53:41.034Z,0.40
2022-09-15T05:56:42.556Z,0.45
2022-09-15T05:59:44.005Z,0.40
2022-09-15T06:02:45.577Z,0.40
2022-09-15T06:05:47.712Z,0.45
2022-09-15T06:08:56.997Z,0.40
2022-09-15T06:11:59.626Z,0.32
2022-09-15T06:15:01.993Z,0.30
2022-09-15T06:18:03.546Z,0.40
2022-09-15T06:21:16.839Z,0.40
2022-09-15T06:24:18.337Z,0.40
2022-09-15T06:27:20.561Z,0.52
2022-09-15T06:30:21.931Z,0.45
2022-09-15T06:33:23.589Z,0.50
2022-09-15T06:36:27.293Z,0.40
2022-09-15T06:39:28.901Z,0.47
2022-09-15T06:42:30.300Z,0.50
2022-09-15T06:45:32.217Z,0.30
2022-09-15T06:48:33.955Z,0.40
2022-09-15T06:51:36.061Z,0.40
2022-09-15T06:54:37.562Z,0.28
2022-09-15T06:57:38.946Z,0.30
2022-09-15T07:00:40.480Z,0.40
2022-09-15T07:03:43.857Z,0.40
2022-09-15T07:06:45.933Z,0.32
2022-09-15T07:09:49.156Z,0.30
2022-09-15T07:15:53.166Z,0.30
2022-09-15T07:19:01.708Z,0.73
2022-09-15T07:22:03.115Z,0.40
2022-09-15T07:25:04.815Z,0.68
2022-09-15T07:28:06.242Z,0.50
2022-09-15T07:31:09.643Z,0.80
2022-09-15T07:34:11.090Z,0.40
2022-09-15T07:37:12.462Z,0.30
2022-09-15T07:40:14.801Z,0.45
2022-09-15T07:43:16.459Z,0.30
2022-09-15T07:46:19.445Z,0.35
2022-09-15T07:49:20.817Z,0.68
2022-09-15T07:52:22.211Z,0.90
2022-09-15T07:55:24.040Z,0.43
2022-09-15T07:58:25.455Z,0.35
2022-09-15T08:01:27.028Z,0.70
2022-09-15T08:04:28.619Z,0.40
2022-09-15T08:07:30.508Z,0.60
2022-09-15T08:10:32.379Z,0.40
2022-09-15T08:13:34.386Z,0.52
2022-09-15T08:16:35.938Z,0.40
2022-09-15T08:19:37.766Z,0.50
2022-09-15T08:22:40.320Z,0.50
2022-09-15T08:25:41.770Z,0.50
2022-09-15T08:28:43.347Z,0.40
2022-09-15T08:31:47.902Z,0.40
2022-09-15T08:34:49.753Z,0.40
2022-09-15T08:37:54.140Z,0.60
2022-09-15T08:41:03.113Z,0.60
2022-09-15T08:44:28.129Z,0.32
2022-09-15T08:47:31.970Z,0.40
2022-09-15T08:50:41.842Z,0.55
2022-09-15T08:53:49.067Z,0.60
2022-09-15T08:56:51.112Z,0.32
2022-09-15T08:59:54.821Z,0.38
2022-09-15T09:03:10.443Z,0.68
2022-09-15T09:06:30.696Z,0.30
2022-09-15T09:09:44.970Z,0.40
2022-09-15T09:13:18.342Z,0.38
2022-09-15T09:16:50.756Z,0.50
2022-09-15T09:20:14.875Z,0.43
2022-09-15T09:23:23.726Z,0.30
2022-09-15T09:26:28.147Z,0.40
2022-09-15T09:29:49.851Z,0.30
2022-09-15T09:32:51.361Z,0.30
2022-09-15T09:35:53.220Z,0.22
2022-09-15T09:38:56.148Z,0.30
2022-09-15T09:41:59.045Z,0.38
2022-09-15T09:45:00.525Z,0.40
2022-09-15T09:48:34.612Z,0.40
2022-09-15T09:51:47.649Z,0.38
2022-09-15T09:55:00.473Z,0.40
2022-09-15T09:58:20.063Z,0.37
2022-09-15T10:01:24.939Z,0.30
2022-09-15T10:04:26.406Z,0.50
2022-09-15T10:07:28.004Z,0.40
2022-09-15T10:10:32.149Z,0.20
2022-09-15T10:13:35.896Z,0.30
2022-09-15T10:16:37.371Z,0.38
2022-09-15T10:19:55.198Z,0.30
2022-09-15T10:23:26.692Z,0.40
2022-09-15T10:26:34.206Z,0.22
2022-09-15T10:29:39.599Z,0.40
2022-09-15T10:32:43.133Z,0.35
2022-09-15T10:35:45.064Z,0.40
2022-09-15T10:38:49.407Z,0.40
2022-09-15T10:42:18.191Z,0.50
2022-09-15T10:45:38.730Z,0.75
2022-09-15T10:49:00.387Z,0.52
2022-09-15T10:52:11.814Z,0.40
2022-09-15T10:55:32.058Z,0.20
2022-09-15T10:59:03.441Z,0.30
2022-09-15T11:02:34.580Z,0.30
2022-09-15T11:05:53.601Z,0.00
2022-09-15T11:09:08.496Z,0.10
2022-09-15T11:12:29.418Z,0.10
2022-09-15T11:15:37.026Z,0.13
2022-09-15T11:19:00.831Z,0.40
2022-09-15T11:25:22.145Z,0.10
2022-09-15T11:28:32.466Z,0.13
2022-09-15T11:31:39.599Z,0.10
2022-09-15T11:34:50.207Z,0.25
2022-09-15T11:37:56.684Z,0.30
2022-09-15T11:41:19.939Z,0.45
2022-09-15T11:44:27.582Z,0.50
2022-09-15T11:47:39.702Z,0.70
2022-09-15T11:50:46.140Z,0.50
2022-09-15T11:54:05.997Z,1.00
2022-09-15T11:57:18.090Z,0.85
2022-09-15T12:00:20.609Z,0.80
2022-09-15T12:03:38.888Z,1.00
2022-09-15T12:06:45.441Z,1.00
2022-09-15T12:09:48.150Z,0.93
2022-09-15T12:12:52.243Z,0.77
2022-09-15T12:15:54.653Z,0.82
2022-09-15T12:19:33.179Z,0.80
2022-09-15T12:23:01.606Z,1.30
2022-09-15T12:26:15.225Z,1.15
2022-09-15T12:32:33.062Z,1.15
2022-09-15T12:35:34.840Z,1.33
2022-09-15T12:38:36.246Z,1.40
2022-09-15T12:41:46.716Z,1.83
2022-09-15T12:44:55.977Z,1.70
2022-09-15T12:48:06.829Z,1.92
2022-09-15T12:51:10.796Z,1.60
2022-09-15T12:54:23.564Z,1.35
2022-09-15T12:57:30.364Z,1.40
2022-09-15T13:00:33.149Z,1.42
2022-09-15T13:03:37.350Z,1.80
2022-09-15T13:06:38.843Z,2.03
2022-09-15T13:09:45.553Z,1.90
2022-09-15T13:12:56.807Z,2.08
2022-09-15T13:16:02.271Z,1.80
2022-09-15T13:19:13.193Z,1.42
2022-09-15T13:22:27.376Z,1.45
2022-09-15T13:25:30.570Z,1.83
2022-09-15T13:28:32.495Z,1.67
2022-09-15T13:31:43.157Z,1.60
2022-09-15T13:35:04.724Z,1.75
2022-09-15T13:38:37.744Z,1.42
2022-09-15T13:42:19.438Z,1.30
2022-09-15T13:45:50.091Z,1.10
2022-09-15T13:49:22.321Z,1.27
2022-09-15T13:52:39.925Z,1.08
2022-09-15T13:55:43.859Z,1.20
2022-09-15T13:59:06.758Z,1.20
2022-09-15T14:02:09.094Z,1.10
2022-09-15T14:05:11.998Z,1.10
2022-09-15T14:08:32.298Z,1.20
2022-09-15T14:11:36.566Z,1.05
2022-09-15T14:14:40.819Z,1.25
2022-09-15T14:17:45.879Z,0.80
2022-09-15T14:20:58.527Z,1.52
2022-09-15T14:24:17.336Z,1.25
2022-09-15T14:27:27.621Z,1.20
2022-09-15T14:30:32.101Z,1.30
2022-09-15T14:33:38.049Z,1.60
2022-09-15T14:36:40.395Z,1.52
2022-09-15T14:39:49.539Z,1.45
2022-09-15T14:42:51.292Z,1.65
2022-09-15T14:45:57.263Z,1.40
2022-09-15T14:49:16.799Z,1.23
2022-09-15T14:52:27.131Z,1.50
2022-09-15T14:55:34.769Z,1.10
2022-09-15T14:58:43.040Z,1.10
2022-09-15T15:01:56.723Z,1.30
2022-09-15T15:05:08.654Z,1.35
2022-09-15T15:08:35.069Z,2.05
2022-09-15T15:11:39.972Z,1.23
2022-09-15T15:14:42.448Z,1.20
2022-09-15T15:17:57.072Z,1.90
2022-09-15T15:20:58.842Z,1.60
2022-09-15T15:24:00.264Z,1.58
2022-09-15T15:27:33.352Z,1.83
2022-09-15T15:30:44.647Z,1.43
2022-09-15T15:33:59.175Z,1.20
2022-09-15T15:37:19.568Z,1.23
2022-09-15T15:40:23.080Z,1.30
2022-09-15T15:43:26.414Z,1.23
2022-09-15T15:46:50.780Z,1.20
2022-09-15T15:50:19.344Z,1.35
2022-09-15T15:53:20.981Z,1.48
2022-09-15T15:56:23.337Z,1.48
2022-09-15T15:59:24.736Z,1.40
2022-09-15T16:02:27.494Z,1.52
2022-09-15T16:05:29.788Z,1.30
2022-09-15T16:08:39.657Z,1.52
2022-09-15T16:11:42.817Z,1.48
2022-09-15T16:14:44.321Z,1.20
2022-09-15T16:17:47.165Z,1.85
2022-09-15T16:20:48.661Z,1.55
2022-09-15T16:23:50.109Z,1.60
2022-09-15T16:26:53.806Z,1.60
2022-09-15T16:29:55.349Z,1.40
2022-09-15T16:32:57.458Z,1.40
2022-09-15T16:36:06.816Z,1.02
2022-09-15T16:39:08.323Z,1.17
2022-09-15T16:42:10.632Z,1.45
2022-09-15T16:45:21.345Z,1.30
2022-09-15T16:48:22.853Z,1.35
2022-09-15T16:51:29.890Z,1.00
2022-09-15T16:54:33.261Z,1.20
2022-09-15T16:57:34.629Z,1.00
2022-09-15T17:00:36.993Z,1.10
2022-09-15T17:03:38.388Z,1.20
2022-09-15T17:06:39.767Z,1.25
2022-09-15T17:09:42.241Z,1.20
2022-09-15T17:12:44.148Z,1.35
2022-09-15T17:15:46.799Z,1.08
2022-09-15T17:18:49.346Z,1.63
2022-09-15T17:21:52.550Z,1.70
2022-09-15T17:24:53.954Z,1.20
2022-09-15T17:27:57.150Z,1.40
2022-09-15T17:31:01.023Z,1.40
2022-09-15T17:34:02.560Z,1.20
2022-09-15T17:37:03.966Z,1.38
2022-09-15T17:40:05.962Z,1.52
2022-09-15T17:43:15.256Z,1.25
2022-09-15T17:46:16.933Z,1.33
2022-09-15T17:49:18.371Z,1.17
2022-09-15T17:52:19.897Z,1.30
2022-09-15T17:55:29.723Z,1.20
2022-09-15T17:58:31.821Z,1.38
2022-09-15T18:01:33.423Z,1.40
2022-09-15T18:04:34.874Z,1.50
2022-09-15T18:07:36.233Z,1.35
2022-09-15T18:10:37.669Z,1.20
2022-09-15T18:13:41.902Z,1.30
2022-09-15T18:16:43.293Z,1.77
2022-09-15T18:19:44.661Z,1.58
2022-09-15T18:22:48.023Z,1.40
2022-09-15T18:28:51.646Z,1.58
2022-09-15T18:31:53.037Z,1.50
2022-09-15T18:34:54.469Z,1.40
2022-09-15T18:37:57.950Z,1.15
2022-09-15T18:41:00.106Z,1.40
2022-09-15T18:44:01.721Z,1.20
2022-09-15T18:47:03.154Z,1.50
2022-09-15T18:50:06.782Z,1.42
2022-09-15T18:53:08.657Z,1.50
2022-09-15T18:56:11.546Z,1.35
2022-09-15T18:59:15.521Z,1.20
2022-09-15T19:02:19.288Z,1.30
2022-09-15T19:05:20.790Z,1.30
2022-09-15T19:08:22.970Z,1.33
2022-09-15T19:11:24.379Z,1.25
2022-09-15T19:14:29.183Z,1.38
2022-09-15T19:17:30.866Z,1.10
2022-09-15T19:20:32.242Z,1.50
2022-09-15T19:23:35.385Z,1.40
2022-09-15T19:26:37.261Z,1.27
2022-09-15T19:29:39.090Z,1.38
2022-09-15T19:32:41.125Z,1.50
2022-09-15T19:35:42.893Z,1.60
2022-09-15T19:38:44.514Z,1.90
2022-09-15T19:41:45.919Z,1.30
2022-09-15T19:44:47.821Z,1.40
2022-09-15T19:47:49.234Z,1.70
2022-09-15T19:50:50.767Z,1.30
2022-09-15T19:53:56.206Z,1.20
2022-09-15T19:56:57.945Z,1.50
2022-09-15T19:59:59.390Z,1.17
2022-09-15T20:03:00.771Z,1.27
2022-09-15T20:06:05.945Z,1.20
2022-09-15T20:09:08.625Z,1.25
2022-09-15T20:12:10.103Z,1.63
2022-09-15T20:15:11.650Z,1.30
2022-09-15T20:18:13.597Z,1.65
2022-09-15T20:21:32.461Z,1.48
2022-09-15T20:24:40.175Z,1.25
2022-09-15T20:27:42.575Z,1.60
2022-09-15T20:30:44.088Z,1.80
2022-09-15T20:33:47.353Z,1.42
2022-09-15T20:36:49.074Z,1.70
2022-09-15T20:39:51.299Z,1.70
2022-09-15T20:42:52.795Z,1.15
2022-09-15T20:45:56.288Z,1.48
2022-09-15T20:48:57.846Z,1.33
2022-09-15T20:51:59.242Z,1.40
2022-09-15T20:55:00.626Z,1.17
2022-09-15T20:58:02.079Z,1.20
2022-09-15T21:01:09.788Z,1.23
2022-09-15T21:04:11.276Z,1.60
2022-09-15T21:07:12.685Z,1.70
2022-09-15T21:10:14.099Z,1.10
2022-09-15T21:13:15.501Z,1.88
2022-09-15T21:16:20.451Z,1.90
2022-09-15T21:19:21.906Z,1.90
2022-09-15T21:22:23.350Z,1.70
2022-09-15T21:25:24.782Z,1.40
2022-09-15T21:28:26.710Z,1.80
2022-09-15T21:31:31.093Z,1.35
2022-09-15T21:34:32.495Z,1.40
2022-09-15T21:37:33.902Z,1.58
2022-09-15T21:40:35.904Z,1.85
2022-09-15T21:43:39.538Z,1.55
2022-09-15T21:46:40.933Z,1.88
2022-09-15T21:49:42.365Z,1.40
2022-09-15T21:52:43.763Z,1.55
2022-09-15T21:55:45.365Z,1.77
2022-09-15T21:58:46.985Z,1.20
2022-09-15T22:01:49.015Z,1.10
2022-09-15T22:04:52.333Z,1.67
2022-09-15T22:07:53.772Z,1.10
2022-09-15T22:10:59.894Z,1.45
2022-09-15T22:14:03.556Z,1.55
2022-09-15T22:17:05.374Z,1.60
2022-09-15T22:20:09.208Z,1.40
2022-09-15T22:23:10.628Z,1.35
2022-09-15T22:26:17.363Z,1.63
2022-09-15T22:29:18.807Z,1.42
2022-09-15T22:32:20.184Z,1.17
2022-09-15T22:35:21.571Z,1.30
2022-09-15T22:38:24.360Z,1.10
2022-09-15T22:41:27.190Z,1.50
2022-09-15T22:44:29.525Z,1.30
2022-09-15T22:47:32.874Z,1.30
2022-09-15T22:50:34.385Z,1.30
2022-09-15T22:53:35.822Z,1.35
2022-09-15T22:56:37.204Z,1.27
2022-09-15T22:59:38.617Z,1.00
2022-09-15T23:02:40.039Z,0.90
2022-09-15T23:05:41.454Z,1.40
2022-09-15T23:08:42.900Z,1.10
2022-09-15T23:11:44.358Z,1.00
2022-09-15T23:14:45.734Z,1.48
2022-09-15T23:17:47.331Z,1.70
2022-09-15T23:20:54.764Z,1.10
2022-09-15T23:23:56.643Z,1.17
2022-09-15T23:26:58.323Z,1.17
2022-09-15T23:29:59.734Z,1.48
2022-09-15T23:33:01.188Z,1.70
2022-09-15T23:36:04.638Z,1.60
2022-09-15T23:42:07.539Z,0.90
2022-09-15T23:45:09.581Z,1.50
2022-09-15T23:48:12.230Z,1.63
2022-09-15T23:51:13.738Z,2.10
2022-09-15T23:54:15.405Z,1.80
2022-09-15T23:57:16.830Z,1.38
